createdAt,value
2022-12-09T00:04:01.552Z,90.72
2022-12-09T00:09:06.982Z,90.58
2022-12-09T00:14:10.191Z,95.32
2022-12-09T00:19:14.635Z,93.89
2022-12-09T00:24:17.126Z,91.96
2022-12-09T00:29:22.900Z,91.62
2022-12-09T00:34:27.014Z,92.18
2022-12-09T00:39:29.852Z,90.64
2022-12-09T00:44:32.459Z,90.55
2022-12-09T00:49:36.359Z,93.54
2022-12-09T00:54:38.929Z,97.36
2022-12-09T00:59:41.449Z,95.26
2022-12-09T01:04:45.438Z,95.51
2022-12-09T01:09:48.349Z,92.10
2022-12-09T01:14:51.028Z,90.19
2022-12-09T01:19:55.130Z,89.38
2022-12-09T01:24:57.579Z,88.97
2022-12-09T01:30:00.009Z,89.65
2022-12-09T01:35:05.150Z,89.80
2022-12-09T01:40:10.945Z,89.68
2022-12-09T01:45:34.644Z,92.33
2022-12-09T01:50:39.511Z,100.00
2022-12-09T01:55:42.240Z,99.98
2022-12-09T02:00:45.750Z,94.21
2022-12-09T02:05:49.892Z,92.06
2022-12-09T02:10:57.076Z,90.98
2022-12-09T02:16:02.480Z,89.38
2022-12-09T02:21:10.019Z,88.92
2022-12-09T02:26:17.596Z,89.82
2022-12-09T02:31:26.466Z,91.89
2022-12-09T02:36:35.733Z,93.04
2022-12-09T02:41:40.692Z,90.97
2022-12-09T02:46:43.692Z,91.82
2022-12-09T02:51:48.834Z,90.50
2022-12-09T02:56:53.543Z,90.04
2022-12-09T03:02:01.811Z,90.11
2022-12-09T03:07:08.866Z,99.38
2022-12-09T03:12:12.449Z,96.99
2022-12-09T03:17:17.558Z,97.31
2022-12-09T03:22:24.989Z,100.00
2022-12-09T03:27:29.726Z,100.00
2022-12-09T03:32:33.170Z,97.53
2022-12-09T03:37:39.122Z,100.00
2022-12-09T03:42:45.465Z,100.00
2022-12-09T03:47:48.278Z,97.43
2022-12-09T03:52:57.495Z,93.86
2022-12-09T03:58:01.411Z,95.15
2022-12-09T04:03:04.194Z,92.88
2022-12-09T04:08:08.649Z,92.16
2022-12-09T04:13:11.285Z,91.27
2022-12-09T04:18:13.920Z,90.90
2022-12-09T04:23:18.167Z,91.34
2022-12-09T04:28:20.644Z,90.28
2022-12-09T04:33:23.081Z,90.56
2022-12-09T04:38:26.826Z,95.16
2022-12-09T04:43:29.814Z,94.00
2022-12-09T04:48:32.889Z,98.33
2022-12-09T04:53:36.979Z,95.61
2022-12-09T04:58:39.776Z,100.00
2022-12-09T05:03:42.734Z,100.00
2022-12-09T05:08:47.173Z,98.76
2022-12-09T05:13:49.775Z,96.67
2022-12-09T05:18:52.482Z,100.00
2022-12-09T05:23:56.868Z,100.00
2022-12-09T05:28:59.599Z,97.31
2022-12-09T05:34:02.378Z,94.47
2022-12-09T05:39:06.817Z,94.09
2022-12-09T05:44:10.626Z,92.71
2022-12-09T05:49:13.600Z,92.35
2022-12-09T05:54:17.938Z,93.56
2022-12-09T05:59:20.577Z,93.05
2022-12-09T06:04:23.659Z,91.60
2022-12-09T06:09:27.876Z,91.68
2022-12-09T06:14:30.446Z,91.91
2022-12-09T06:19:33.392Z,91.69
2022-12-09T06:24:37.717Z,92.36
2022-12-09T06:29:40.253Z,93.56
2022-12-09T06:34:43.176Z,90.85
2022-12-09T06:39:47.926Z,89.44
2022-12-09T06:44:50.587Z,89.89
2022-12-09T06:49:53.325Z,89.61
2022-12-09T06:54:57.601Z,92.24
2022-12-09T07:00:01.941Z,95.55
2022-12-09T07:05:05.656Z,99.27
2022-12-09T07:10:11.427Z,100.00
2022-12-09T07:15:14.530Z,100.00
2022-12-09T07:20:17.987Z,100.00
2022-12-09T07:25:22.097Z,98.43
2022-12-09T07:30:25.013Z,100.00
2022-12-09T07:35:27.610Z,99.03
2022-12-09T07:40:31.520Z,94.34
2022-12-09T07:45:34.985Z,94.07
2022-12-09T07:50:37.707Z,92.89
2022-12-09T07:55:41.955Z,92.46
2022-12-09T08:00:44.675Z,92.41
2022-12-09T08:05:47.917Z,91.29
2022-12-09T08:10:54.936Z,95.68
2022-12-09T08:16:02.586Z,93.40
2022-12-09T08:21:06.779Z,91.33
2022-12-09T08:26:11.432Z,97.91
2022-12-09T08:31:14.852Z,97.33
2022-12-09T08:36:19.298Z,93.29
2022-12-09T08:41:35.359Z,92.04
2022-12-09T08:46:39.945Z,100.00
2022-12-09T08:51:46.206Z,100.00
2022-12-09T08:56:51.496Z,100.00
2022-12-09T09:01:54.515Z,100.00
2022-12-09T09:06:57.309Z,97.36
2022-12-09T09:12:01.945Z,98.89
2022-12-09T09:17:04.754Z,99.37
2022-12-09T09:22:08.024Z,98.92
2022-12-09T09:27:12.283Z,98.84
2022-12-09T09:32:14.984Z,100.00
2022-12-09T09:37:17.845Z,98.49
2022-12-09T09:42:25.361Z,100.00
2022-12-09T09:47:37.784Z,98.46
2022-12-09T09:52:43.987Z,100.00
2022-12-09T09:57:50.596Z,100.00
2022-12-09T10:02:59.531Z,100.00
2022-12-09T10:08:17.479Z,100.00
2022-12-09T10:13:28.387Z,100.00
2022-12-09T10:18:35.320Z,100.00
2022-12-09T10:23:38.037Z,100.00
2022-12-09T10:28:45.013Z,100.00
2022-12-09T10:33:48.034Z,100.00
2022-12-09T10:38:50.929Z,100.00
2022-12-09T10:44:14.845Z,100.00
2022-12-09T10:49:21.776Z,100.00
2022-12-09T10:54:30.449Z,100.00
2022-12-09T10:59:33.412Z,100.00
2022-12-09T11:04:39.391Z,100.00
2022-12-09T11:09:44.046Z,100.00
2022-12-09T11:14:51.878Z,100.00
2022-12-09T11:19:57.173Z,98.97
2022-12-09T11:25:12.994Z,99.68
2022-12-09T11:30:18.098Z,100.00
2022-12-09T11:35:26.806Z,98.68
2022-12-09T11:40:30.341Z,100.00
2022-12-09T11:45:36.082Z,99.28
2022-12-09T11:50:42.598Z,98.20
2022-12-09T11:55:47.039Z,100.00
2022-12-09T12:00:51.755Z,100.00
2022-12-09T12:05:55.994Z,99.13
2022-12-09T12:11:01.647Z,97.95
2022-12-09T12:16:08.030Z,99.04
2022-12-09T12:21:19.679Z,99.13
2022-12-09T12:26:25.279Z,99.86
2022-12-09T12:31:33.915Z,97.19
2022-12-09T12:36:43.613Z,97.97
2022-12-09T12:41:49.837Z,99.55
2022-12-09T12:46:57.240Z,99.29
2022-12-09T12:52:09.982Z,97.73
2022-12-09T12:57:21.846Z,98.36
2022-12-09T13:02:33.219Z,100.00
2022-12-09T13:07:42.557Z,100.00
2022-12-09T13:12:58.480Z,100.00
2022-12-09T13:18:02.827Z,100.00
2022-12-09T13:23:13.640Z,100.00
2022-12-09T13:28:19.082Z,100.00
2022-12-09T13:33:29.587Z,100.00
2022-12-09T13:38:39.521Z,100.00
2022-12-09T13:43:42.227Z,97.93
2022-12-09T13:48:48.812Z,96.31
2022-12-09T13:53:54.581Z,97.30
2022-12-09T13:59:17.937Z,97.39
2022-12-09T14:04:22.235Z,98.29
2022-12-09T14:09:29.956Z,97.88
2022-12-09T14:14:56.489Z,100.00
2022-12-09T14:20:02.580Z,96.97
2022-12-09T14:25:23.783Z,96.19
2022-12-09T14:30:44.952Z,94.68
2022-12-09T14:35:50.471Z,95.73
2022-12-09T14:40:57.256Z,98.95
2022-12-09T14:46:01.853Z,100.00
2022-12-09T14:51:15.844Z,100.00
2022-12-09T14:56:19.575Z,100.00
2022-12-09T15:01:22.062Z,100.00
2022-12-09T15:06:27.105Z,100.00
2022-12-09T15:11:31.471Z,100.00
2022-12-09T15:16:34.013Z,98.41
2022-12-09T15:21:37.808Z,99.00
2022-12-09T15:26:40.298Z,97.00
2022-12-09T15:31:48.162Z,97.30
2022-12-09T15:36:53.771Z,100.00
2022-12-09T15:42:08.299Z,100.00
2022-12-09T15:47:13.732Z,97.73
2022-12-09T15:52:18.941Z,100.00
2022-12-09T15:57:23.889Z,100.00
2022-12-09T16:02:28.268Z,100.00
2022-12-09T16:07:33.752Z,99.92
2022-12-09T16:12:37.545Z,97.95
2022-12-09T16:17:52.475Z,96.34
2022-12-09T16:22:56.319Z,100.00
2022-12-09T16:28:00.129Z,100.00
2022-12-09T16:33:03.846Z,100.00
2022-12-09T16:38:18.000Z,98.22
2022-12-09T16:43:21.495Z,95.54
2022-12-09T16:48:25.112Z,100.00
2022-12-09T16:53:31.005Z,100.00
2022-12-09T16:58:36.274Z,100.00
2022-12-09T17:03:40.970Z,100.00
2022-12-09T17:08:44.877Z,100.00
2022-12-09T17:13:48.182Z,98.28
2022-12-09T17:18:50.966Z,99.22
2022-12-09T17:23:56.821Z,95.72
2022-12-09T17:29:01.810Z,97.59
2022-12-09T17:34:04.668Z,99.44
2022-12-09T17:39:08.469Z,99.25
2022-12-09T17:44:10.900Z,97.83
2022-12-09T17:49:13.285Z,97.88
2022-12-09T17:54:17.019Z,95.76
2022-12-09T17:59:19.459Z,96.96
2022-12-09T18:04:21.848Z,93.56
2022-12-09T18:09:25.728Z,95.15
2022-12-09T18:14:28.392Z,97.07
2022-12-09T18:19:30.961Z,95.93
2022-12-09T18:24:34.861Z,94.87
2022-12-09T18:29:37.384Z,92.37
2022-12-09T18:34:39.943Z,92.83
2022-12-09T18:39:43.765Z,92.81
2022-12-09T18:44:46.255Z,93.29
2022-12-09T18:49:48.749Z,91.66
2022-12-09T18:54:52.588Z,91.37
2022-12-09T18:59:55.001Z,93.08
2022-12-09T19:04:57.468Z,94.83
2022-12-09T19:10:01.199Z,94.08
2022-12-09T19:15:03.660Z,95.51
2022-12-09T19:20:06.946Z,96.78
2022-12-09T19:25:10.911Z,98.12
2022-12-09T19:30:14.339Z,100.00
2022-12-09T19:35:16.916Z,99.47
2022-12-09T19:40:20.764Z,98.27
2022-12-09T19:45:23.180Z,95.30
2022-12-09T19:50:25.653Z,98.51
2022-12-09T19:55:29.405Z,96.61
2022-12-09T20:00:35.613Z,93.47
2022-12-09T20:05:47.757Z,94.58
2022-12-09T20:10:51.806Z,94.50
2022-12-09T20:15:54.298Z,95.42
2022-12-09T20:20:56.928Z,93.85
2022-12-09T20:26:05.304Z,93.74
2022-12-09T20:31:08.893Z,95.91
2022-12-09T20:36:19.801Z,96.92
2022-12-09T20:41:24.190Z,95.26
2022-12-09T20:46:27.407Z,96.70
2022-12-09T20:51:31.057Z,95.27
2022-12-09T20:56:35.455Z,93.89
2022-12-09T21:01:38.557Z,95.49
2022-12-09T21:06:42.704Z,96.73
2022-12-09T21:11:46.962Z,97.26
2022-12-09T21:16:50.982Z,97.75
2022-12-09T21:21:54.327Z,99.68
2022-12-09T21:26:58.159Z,97.78
2022-12-09T21:32:01.354Z,94.68
2022-12-09T21:37:03.938Z,98.52
2022-12-09T21:42:09.322Z,99.56
2022-12-09T21:47:11.757Z,100.00
2022-12-09T21:52:14.155Z,98.82
2022-12-09T21:57:17.987Z,97.09
2022-12-09T22:02:20.455Z,98.80
2022-12-09T22:07:22.952Z,97.90
2022-12-09T22:12:26.952Z,98.62
2022-12-09T22:17:29.338Z,96.30
2022-12-09T22:22:31.784Z,95.50
2022-12-09T22:27:35.736Z,93.16
2022-12-09T22:32:41.606Z,92.17
2022-12-09T22:37:45.938Z,93.92
2022-12-09T22:42:50.137Z,96.75
2022-12-09T22:47:54.638Z,98.92
2022-12-09T22:52:57.127Z,97.71
2022-12-09T22:58:00.873Z,98.24
2022-12-09T23:03:03.491Z,99.59
2022-12-09T23:08:06.471Z,100.00
2022-12-09T23:13:10.749Z,97.67
2022-12-09T23:18:13.202Z,94.56
2022-12-09T23:23:15.590Z,95.52
2022-12-09T23:28:19.339Z,98.41
2022-12-09T23:33:21.758Z,100.00
2022-12-09T23:38:24.237Z,97.51
2022-12-09T23:43:30.939Z,97.75
2022-12-09T23:48:33.443Z,100.00
2022-12-09T23:53:46.916Z,97.72
2022-12-09T23:58:53.767Z,98.77
